sensor_id;sensor_type;location;lat;lon;timestamp;P1;durP1;ratioP1;P2;durP2;ratioP2
21202;SDS011;10759;51.982;9.232;2022-07-18T00:02:08;2.67;;;1.95;;
21202;SDS011;10759;51.982;9.232;2022-07-18T00:04:44;2.70;;;1.90;;
21202;SDS011;10759;51.982;9.232;2022-07-18T00:07:15;2.58;;;1.52;;
21202;SDS011;10759;51.982;9.232;2022-07-18T00:09:48;2.72;;;1.73;;
21202;SDS011;10759;51.982;9.232;2022-07-18T00:12:16;2.28;;;1.70;;
21202;SDS011;10759;51.982;9.232;2022-07-18T00:14:54;2.13;;;1.60;;
21202;SDS011;10759;51.982;9.232;2022-07-18T00:17:29;2.00;;;1.67;;
21202;SDS011;10759;51.982;9.232;2022-07-18T00:20:04;3.22;;;1.85;;
21202;SDS011;10759;51.982;9.232;2022-07-18T00:22:35;1.60;;;1.50;;
21202;SDS011;10759;51.982;9.232;2022-07-18T00:25:04;3.60;;;1.90;;
21202;SDS011;10759;51.982;9.232;2022-07-18T00:27:33;2.15;;;1.50;;
21202;SDS011;10759;51.982;9.232;2022-07-18T00:30:06;5.28;;;2.10;;
21202;SDS011;10759;51.982;9.232;2022-07-18T00:32:35;4.18;;;1.98;;
21202;SDS011;10759;51.982;9.232;2022-07-18T00:35:05;3.63;;;1.83;;
21202;SDS011;10759;51.982;9.232;2022-07-18T00:37:36;2.85;;;1.40;;
21202;SDS011;10759;51.982;9.232;2022-07-18T00:40:08;2.00;;;1.40;;
21202;SDS011;10759;51.982;9.232;2022-07-18T00:42:42;3.85;;;1.80;;
21202;SDS011;10759;51.982;9.232;2022-07-18T00:45:14;2.55;;;1.90;;
21202;SDS011;10759;51.982;9.232;2022-07-18T00:47:50;3.65;;;1.83;;
21202;SDS011;10759;51.982;9.232;2022-07-18T00:50:22;2.92;;;1.60;;
21202;SDS011;10759;51.982;9.232;2022-07-18T00:52:54;2.72;;;1.90;;
21202;SDS011;10759;51.982;9.232;2022-07-18T00:55:24;2.45;;;1.80;;
21202;SDS011;10759;51.982;9.232;2022-07-18T00:57:52;3.47;;;1.88;;
21202;SDS011;10759;51.982;9.232;2022-07-18T01:00:24;4.75;;;1.85;;
21202;SDS011;10759;51.982;9.232;2022-07-18T01:03:10;2.35;;;1.77;;
21202;SDS011;10759;51.982;9.232;2022-07-18T01:05:40;3.83;;;1.90;;
21202;SDS011;10759;51.982;9.232;2022-07-18T01:08:11;3.00;;;1.63;;
21202;SDS011;10759;51.982;9.232;2022-07-18T01:10:39;2.30;;;1.80;;
21202;SDS011;10759;51.982;9.232;2022-07-18T01:13:07;2.88;;;2.25;;
21202;SDS011;10759;51.982;9.232;2022-07-18T01:15:35;2.85;;;1.90;;
21202;SDS011;10759;51.982;9.232;2022-07-18T01:18:04;3.38;;;1.85;;
21202;SDS011;10759;51.982;9.232;2022-07-18T01:20:33;2.15;;;1.70;;
21202;SDS011;10759;51.982;9.232;2022-07-18T01:23:01;2.17;;;1.80;;
21202;SDS011;10759;51.982;9.232;2022-07-18T01:25:30;1.73;;;1.63;;
21202;SDS011;10759;51.982;9.232;2022-07-18T01:27:58;1.83;;;1.55;;
21202;SDS011;10759;51.982;9.232;2022-07-18T01:30:26;4.22;;;1.73;;
21202;SDS011;10759;51.982;9.232;2022-07-18T01:32:54;3.10;;;1.80;;
21202;SDS011;10759;51.982;9.232;2022-07-18T01:35:25;1.75;;;1.65;;
21202;SDS011;10759;51.982;9.232;2022-07-18T01:37:56;2.58;;;1.27;;
21202;SDS011;10759;51.982;9.232;2022-07-18T01:40:26;2.13;;;1.80;;
21202;SDS011;10759;51.982;9.232;2022-07-18T01:42:55;3.17;;;2.22;;
21202;SDS011;10759;51.982;9.232;2022-07-18T01:45:23;3.05;;;1.77;;
21202;SDS011;10759;51.982;9.232;2022-07-18T01:47:52;2.55;;;1.77;;
21202;SDS011;10759;51.982;9.232;2022-07-18T01:50:20;3.22;;;2.17;;
21202;SDS011;10759;51.982;9.232;2022-07-18T01:52:48;3.38;;;1.58;;
21202;SDS011;10759;51.982;9.232;2022-07-18T01:55:18;2.35;;;1.80;;
21202;SDS011;10759;51.982;9.232;2022-07-18T01:57:46;3.13;;;1.92;;
21202;SDS011;10759;51.982;9.232;2022-07-18T02:00:14;4.22;;;2.08;;
21202;SDS011;10759;51.982;9.232;2022-07-18T02:02:42;2.80;;;2.00;;
21202;SDS011;10759;51.982;9.232;2022-07-18T02:05:11;1.70;;;1.48;;
21202;SDS011;10759;51.982;9.232;2022-07-18T02:07:39;2.83;;;1.77;;
21202;SDS011;10759;51.982;9.232;2022-07-18T02:10:10;2.40;;;1.77;;
21202;SDS011;10759;51.982;9.232;2022-07-18T02:12:40;2.47;;;1.83;;
21202;SDS011;10759;51.982;9.232;2022-07-18T02:15:10;3.33;;;2.20;;
21202;SDS011;10759;51.982;9.232;2022-07-18T02:17:40;4.22;;;1.95;;
21202;SDS011;10759;51.982;9.232;2022-07-18T02:20:10;3.30;;;2.42;;
21202;SDS011;10759;51.982;9.232;2022-07-18T02:22:42;2.35;;;2.15;;
21202;SDS011;10759;51.982;9.232;2022-07-18T02:25:11;4.20;;;2.95;;
21202;SDS011;10759;51.982;9.232;2022-07-18T02:27:41;1.88;;;1.77;;
21202;SDS011;10759;51.982;9.232;2022-07-18T02:30:10;2.72;;;2.30;;
21202;SDS011;10759;51.982;9.232;2022-07-18T02:32:38;2.53;;;1.67;;
21202;SDS011;10759;51.982;9.232;2022-07-18T02:35:07;2.17;;;1.85;;
21202;SDS011;10759;51.982;9.232;2022-07-18T02:37:36;3.80;;;2.05;;
21202;SDS011;10759;51.982;9.232;2022-07-18T02:40:07;2.30;;;1.92;;
21202;SDS011;10759;51.982;9.232;2022-07-18T02:42:36;2.78;;;2.10;;
21202;SDS011;10759;51.982;9.232;2022-07-18T02:45:07;2.72;;;2.20;;
21202;SDS011;10759;51.982;9.232;2022-07-18T02:47:36;2.20;;;2.00;;
21202;SDS011;10759;51.982;9.232;2022-07-18T02:50:04;2.40;;;1.80;;
21202;SDS011;10759;51.982;9.232;2022-07-18T02:52:33;2.13;;;1.80;;
21202;SDS011;10759;51.982;9.232;2022-07-18T02:55:02;3.17;;;2.30;;
21202;SDS011;10759;51.982;9.232;2022-07-18T02:57:31;4.43;;;1.75;;
21202;SDS011;10759;51.982;9.232;2022-07-18T02:59:59;4.70;;;2.10;;
21202;SDS011;10759;51.982;9.232;2022-07-18T03:02:28;3.47;;;1.77;;
21202;SDS011;10759;51.982;9.232;2022-07-18T03:04:56;1.83;;;1.73;;
21202;SDS011;10759;51.982;9.232;2022-07-18T03:07:24;3.90;;;1.90;;
21202;SDS011;10759;51.982;9.232;2022-07-18T03:09:52;4.85;;;1.95;;
21202;SDS011;10759;51.982;9.232;2022-07-18T03:12:21;1.98;;;1.88;;
21202;SDS011;10759;51.982;9.232;2022-07-18T03:14:49;4.65;;;2.03;;
21202;SDS011;10759;51.982;9.232;2022-07-18T03:17:17;1.83;;;1.55;;
21202;SDS011;10759;51.982;9.232;2022-07-18T03:19:47;3.40;;;1.80;;
21202;SDS011;10759;51.982;9.232;2022-07-18T03:22:15;2.10;;;1.90;;
21202;SDS011;10759;51.982;9.232;2022-07-18T03:24:43;2.78;;;2.25;;
21202;SDS011;10759;51.982;9.232;2022-07-18T03:27:11;2.05;;;1.85;;
21202;SDS011;10759;51.982;9.232;2022-07-18T03:29:39;3.33;;;2.00;;
21202;SDS011;10759;51.982;9.232;2022-07-18T03:32:07;4.47;;;1.90;;
21202;SDS011;10759;51.982;9.232;2022-07-18T03:34:35;2.00;;;1.80;;
21202;SDS011;10759;51.982;9.232;2022-07-18T03:37:05;2.25;;;1.80;;
21202;SDS011;10759;51.982;9.232;2022-07-18T03:39:33;2.37;;;1.90;;
21202;SDS011;10759;51.982;9.232;2022-07-18T03:42:01;4.85;;;1.92;;
21202;SDS011;10759;51.982;9.232;2022-07-18T03:44:29;2.75;;;2.08;;
21202;SDS011;10759;51.982;9.232;2022-07-18T03:46:57;2.50;;;2.10;;
21202;SDS011;10759;51.982;9.232;2022-07-18T03:49:25;2.70;;;2.10;;
21202;SDS011;10759;51.982;9.232;2022-07-18T03:51:53;2.20;;;2.00;;
21202;SDS011;10759;51.982;9.232;2022-07-18T03:54:23;3.65;;;2.30;;
21202;SDS011;10759;51.982;9.232;2022-07-18T03:56:52;3.38;;;2.03;;
21202;SDS011;10759;51.982;9.232;2022-07-18T03:59:20;3.75;;;1.88;;
21202;SDS011;10759;51.982;9.232;2022-07-18T04:01:48;2.55;;;2.13;;
21202;SDS011;10759;51.982;9.232;2022-07-18T04:04:16;3.28;;;1.98;;
21202;SDS011;10759;51.982;9.232;2022-07-18T04:06:44;3.33;;;2.33;;
21202;SDS011;10759;51.982;9.232;2022-07-18T04:09:12;3.65;;;2.15;;
21202;SDS011;10759;51.982;9.232;2022-07-18T04:11:41;3.05;;;2.25;;
21202;SDS011;10759;51.982;9.232;2022-07-18T04:14:09;2.40;;;2.20;;
21202;SDS011;10759;51.982;9.232;2022-07-18T04:16:37;3.97;;;2.20;;
21202;SDS011;10759;51.982;9.232;2022-07-18T04:19:06;3.17;;;2.10;;
21202;SDS011;10759;51.982;9.232;2022-07-18T04:21:34;3.38;;;2.13;;
21202;SDS011;10759;51.982;9.232;2022-07-18T04:24:02;3.58;;;2.60;;
21202;SDS011;10759;51.982;9.232;2022-07-18T04:26:30;2.47;;;1.90;;
21202;SDS011;10759;51.982;9.232;2022-07-18T04:29:00;2.47;;;2.10;;
21202;SDS011;10759;51.982;9.232;2022-07-18T04:31:28;2.28;;;1.75;;
21202;SDS011;10759;51.982;9.232;2022-07-18T04:33:56;2.22;;;1.95;;
21202;SDS011;10759;51.982;9.232;2022-07-18T04:36:24;4.25;;;2.03;;
21202;SDS011;10759;51.982;9.232;2022-07-18T04:38:52;3.75;;;2.25;;
21202;SDS011;10759;51.982;9.232;2022-07-18T04:41:20;2.53;;;2.30;;
21202;SDS011;10759;51.982;9.232;2022-07-18T04:43:51;3.38;;;2.53;;
21202;SDS011;10759;51.982;9.232;2022-07-18T04:46:21;3.28;;;2.80;;
21202;SDS011;10759;51.982;9.232;2022-07-18T04:48:49;3.38;;;2.30;;
21202;SDS011;10759;51.982;9.232;2022-07-18T04:51:17;3.42;;;2.10;;
21202;SDS011;10759;51.982;9.232;2022-07-18T04:53:45;3.58;;;2.20;;
21202;SDS011;10759;51.982;9.232;2022-07-18T04:56:13;2.05;;;1.85;;
21202;SDS011;10759;51.982;9.232;2022-07-18T04:58:41;2.60;;;2.40;;
21202;SDS011;10759;51.982;9.232;2022-07-18T05:01:09;2.85;;;2.55;;
21202;SDS011;10759;51.982;9.232;2022-07-18T05:03:39;4.70;;;2.40;;
21202;SDS011;10759;51.982;9.232;2022-07-18T05:06:07;3.17;;;2.22;;
21202;SDS011;10759;51.982;9.232;2022-07-18T05:08:36;2.63;;;2.42;;
21202;SDS011;10759;51.982;9.232;2022-07-18T05:11:04;3.05;;;2.78;;
21202;SDS011;10759;51.982;9.232;2022-07-18T05:13:32;4.03;;;2.78;;
21202;SDS011;10759;51.982;9.232;2022-07-18T05:16:00;2.83;;;2.60;;
21202;SDS011;10759;51.982;9.232;2022-07-18T05:18:29;4.90;;;2.67;;
21202;SDS011;10759;51.982;9.232;2022-07-18T05:20:58;3.58;;;2.45;;
21202;SDS011;10759;51.982;9.232;2022-07-18T05:23:26;3.30;;;2.05;;
21202;SDS011;10759;51.982;9.232;2022-07-18T05:25:54;3.75;;;3.17;;
21202;SDS011;10759;51.982;9.232;2022-07-18T05:28:22;3.03;;;2.25;;
21202;SDS011;10759;51.982;9.232;2022-07-18T05:30:50;4.32;;;3.13;;
21202;SDS011;10759;51.982;9.232;2022-07-18T05:33:20;3.55;;;2.47;;
21202;SDS011;10759;51.982;9.232;2022-07-18T05:35:48;4.43;;;2.72;;
21202;SDS011;10759;51.982;9.232;2022-07-18T05:38:18;2.83;;;2.63;;
21202;SDS011;10759;51.982;9.232;2022-07-18T05:40:46;2.53;;;2.33;;
21202;SDS011;10759;51.982;9.232;2022-07-18T05:43:14;3.17;;;2.70;;
21202;SDS011;10759;51.982;9.232;2022-07-18T05:45:42;3.47;;;2.13;;
21202;SDS011;10759;51.982;9.232;2022-07-18T05:48:10;3.97;;;2.55;;
21202;SDS011;10759;51.982;9.232;2022-07-18T05:50:39;3.13;;;2.25;;
21202;SDS011;10759;51.982;9.232;2022-07-18T05:53:07;4.20;;;2.50;;
21202;SDS011;10759;51.982;9.232;2022-07-18T05:55:36;2.95;;;2.13;;
21202;SDS011;10759;51.982;9.232;2022-07-18T05:58:05;5.75;;;2.83;;
21202;SDS011;10759;51.982;9.232;2022-07-18T06:00:33;6.13;;;2.83;;
21202;SDS011;10759;51.982;9.232;2022-07-18T06:03:01;5.88;;;2.30;;
21202;SDS011;10759;51.982;9.232;2022-07-18T06:05:29;5.20;;;3.15;;
21202;SDS011;10759;51.982;9.232;2022-07-18T06:07:57;3.90;;;3.05;;
21202;SDS011;10759;51.982;9.232;2022-07-18T06:10:28;6.50;;;2.80;;
21202;SDS011;10759;51.982;9.232;2022-07-18T06:12:58;5.22;;;2.78;;
21202;SDS011;10759;51.982;9.232;2022-07-18T06:15:26;6.38;;;2.63;;
21202;SDS011;10759;51.982;9.232;2022-07-18T06:17:54;6.57;;;3.03;;
21202;SDS011;10759;51.982;9.232;2022-07-18T06:20:22;5.38;;;2.70;;
21202;SDS011;10759;51.982;9.232;2022-07-18T06:22:50;5.55;;;2.65;;
21202;SDS011;10759;51.982;9.232;2022-07-18T06:25:18;4.05;;;2.90;;
21202;SDS011;10759;51.982;9.232;2022-07-18T06:27:46;3.67;;;2.67;;
21202;SDS011;10759;51.982;9.232;2022-07-18T06:30:16;4.32;;;2.70;;
21202;SDS011;10759;51.982;9.232;2022-07-18T06:32:44;3.97;;;2.53;;
21202;SDS011;10759;51.982;9.232;2022-07-18T06:35:12;3.30;;;2.33;;
21202;SDS011;10759;51.982;9.232;2022-07-18T06:37:40;5.90;;;3.17;;
21202;SDS011;10759;51.982;9.232;2022-07-18T06:40:08;3.55;;;2.38;;
21202;SDS011;10759;51.982;9.232;2022-07-18T06:42:36;3.47;;;2.10;;
21202;SDS011;10759;51.982;9.232;2022-07-18T06:45:06;3.95;;;2.53;;
21202;SDS011;10759;51.982;9.232;2022-07-18T06:47:40;3.97;;;2.38;;
21202;SDS011;10759;51.982;9.232;2022-07-18T06:50:09;6.35;;;2.42;;
21202;SDS011;10759;51.982;9.232;2022-07-18T06:52:38;4.18;;;2.35;;
21202;SDS011;10759;51.982;9.232;2022-07-18T06:55:07;4.43;;;2.40;;
21202;SDS011;10759;51.982;9.232;2022-07-18T06:57:36;3.63;;;2.73;;
21202;SDS011;10759;51.982;9.232;2022-07-18T07:00:05;4.15;;;2.45;;
21202;SDS011;10759;51.982;9.232;2022-07-18T07:02:40;5.07;;;2.80;;
21202;SDS011;10759;51.982;9.232;2022-07-18T07:05:09;3.85;;;2.40;;
21202;SDS011;10759;51.982;9.232;2022-07-18T07:07:37;5.53;;;2.28;;
21202;SDS011;10759;51.982;9.232;2022-07-18T07:10:13;4.75;;;2.25;;
21202;SDS011;10759;51.982;9.232;2022-07-18T07:12:42;3.53;;;2.30;;
21202;SDS011;10759;51.982;9.232;2022-07-18T07:15:11;2.67;;;2.20;;
21202;SDS011;10759;51.982;9.232;2022-07-18T07:17:41;3.78;;;2.15;;
21202;SDS011;10759;51.982;9.232;2022-07-18T07:20:09;3.90;;;2.20;;
21202;SDS011;10759;51.982;9.232;2022-07-18T07:22:42;2.90;;;1.70;;
21202;SDS011;10759;51.982;9.232;2022-07-18T07:25:11;5.75;;;1.80;;
21202;SDS011;10759;51.982;9.232;2022-07-18T07:27:41;2.75;;;1.65;;
21202;SDS011;10759;51.982;9.232;2022-07-18T07:30:09;4.43;;;2.17;;
21202;SDS011;10759;51.982;9.232;2022-07-18T07:32:39;3.60;;;1.60;;
21202;SDS011;10759;51.982;9.232;2022-07-18T07:35:11;3.88;;;1.92;;
21202;SDS011;10759;51.982;9.232;2022-07-18T07:37:42;2.80;;;1.98;;
21202;SDS011;10759;51.982;9.232;2022-07-18T07:40:12;2.65;;;1.45;;
21202;SDS011;10759;51.982;9.232;2022-07-18T07:42:41;2.97;;;2.15;;
21202;SDS011;10759;51.982;9.232;2022-07-18T07:45:10;3.45;;;1.77;;
21202;SDS011;10759;51.982;9.232;2022-07-18T07:47:40;2.92;;;1.38;;
21202;SDS011;10759;51.982;9.232;2022-07-18T07:50:10;2.78;;;1.88;;
21202;SDS011;10759;51.982;9.232;2022-07-18T07:52:39;3.20;;;2.00;;
21202;SDS011;10759;51.982;9.232;2022-07-18T07:55:07;3.78;;;1.98;;
21202;SDS011;10759;51.982;9.232;2022-07-18T07:57:35;4.78;;;1.90;;
21202;SDS011;10759;51.982;9.232;2022-07-18T08:00:04;3.05;;;1.75;;
21202;SDS011;10759;51.982;9.232;2022-07-18T08:02:50;3.10;;;1.60;;
21202;SDS011;10759;51.982;9.232;2022-07-18T08:05:25;3.95;;;1.60;;
21202;SDS011;10759;51.982;9.232;2022-07-18T08:07:54;5.85;;;1.95;;
21202;SDS011;10759;51.982;9.232;2022-07-18T08:10:22;5.45;;;1.60;;
21202;SDS011;10759;51.982;9.232;2022-07-18T08:12:50;4.25;;;1.52;;
21202;SDS011;10759;51.982;9.232;2022-07-18T08:15:19;2.13;;;1.40;;
21202;SDS011;10759;51.982;9.232;2022-07-18T08:17:47;2.38;;;1.92;;
21202;SDS011;10759;51.982;9.232;2022-07-18T08:20:17;2.80;;;1.77;;
21202;SDS011;10759;51.982;9.232;2022-07-18T08:22:52;4.57;;;1.88;;
21202;SDS011;10759;51.982;9.232;2022-07-18T08:25:20;3.75;;;1.65;;
21202;SDS011;10759;51.982;9.232;2022-07-18T08:27:49;6.68;;;2.13;;
21202;SDS011;10759;51.982;9.232;2022-07-18T08:30:17;4.90;;;1.67;;
21202;SDS011;10759;51.982;9.232;2022-07-18T08:32:46;3.90;;;1.80;;
21202;SDS011;10759;51.982;9.232;2022-07-18T08:35:14;2.65;;;1.77;;
21202;SDS011;10759;51.982;9.232;2022-07-18T08:37:43;3.65;;;1.58;;
21202;SDS011;10759;51.982;9.232;2022-07-18T08:40:11;3.67;;;1.60;;
21202;SDS011;10759;51.982;9.232;2022-07-18T08:42:40;2.28;;;1.40;;
21202;SDS011;10759;51.982;9.232;2022-07-18T08:45:29;3.22;;;1.60;;
21202;SDS011;10759;51.982;9.232;2022-07-18T08:47:58;3.22;;;1.70;;
21202;SDS011;10759;51.982;9.232;2022-07-18T08:50:27;3.72;;;1.63;;
21202;SDS011;10759;51.982;9.232;2022-07-18T08:52:56;2.17;;;1.45;;
21202;SDS011;10759;51.982;9.232;2022-07-18T08:55:25;2.97;;;1.50;;
21202;SDS011;10759;51.982;9.232;2022-07-18T08:57:53;1.70;;;1.20;;
21202;SDS011;10759;51.982;9.232;2022-07-18T09:00:22;2.47;;;1.58;;
21202;SDS011;10759;51.982;9.232;2022-07-18T09:02:57;3.38;;;1.75;;
21202;SDS011;10759;51.982;9.232;2022-07-18T09:05:26;2.17;;;1.30;;
21202;SDS011;10759;51.982;9.232;2022-07-18T09:08:10;3.42;;;1.48;;
21202;SDS011;10759;51.982;9.232;2022-07-18T09:10:49;4.28;;;1.42;;
21202;SDS011;10759;51.982;9.232;2022-07-18T09:13:18;4.20;;;1.63;;
21202;SDS011;10759;51.982;9.232;2022-07-18T09:15:59;4.75;;;1.40;;
21202;SDS011;10759;51.982;9.232;2022-07-18T09:18:29;2.63;;;1.50;;
21202;SDS011;10759;51.982;9.232;2022-07-18T09:21:04;3.15;;;1.38;;
21202;SDS011;10759;51.982;9.232;2022-07-18T09:23:35;2.10;;;1.48;;
21202;SDS011;10759;51.982;9.232;2022-07-18T09:26:06;1.63;;;1.33;;
21202;SDS011;10759;51.982;9.232;2022-07-18T09:28:47;1.95;;;1.40;;
21202;SDS011;10759;51.982;9.232;2022-07-18T09:31:36;2.33;;;1.00;;
21202;SDS011;10759;51.982;9.232;2022-07-18T09:34:05;2.47;;;1.33;;
21202;SDS011;10759;51.982;9.232;2022-07-18T09:36:33;4.03;;;1.60;;
21202;SDS011;10759;51.982;9.232;2022-07-18T09:39:18;3.15;;;1.55;;
21202;SDS011;10759;51.982;9.232;2022-07-18T09:41:47;2.40;;;1.50;;
21202;SDS011;10759;51.982;9.232;2022-07-18T09:44:15;1.20;;;1.10;;
21202;SDS011;10759;51.982;9.232;2022-07-18T09:47:00;3.83;;;1.55;;
21202;SDS011;10759;51.982;9.232;2022-07-18T09:49:29;3.47;;;1.65;;
21202;SDS011;10759;51.982;9.232;2022-07-18T09:52:02;2.78;;;1.50;;
21202;SDS011;10759;51.982;9.232;2022-07-18T09:54:36;2.38;;;1.48;;
21202;SDS011;10759;51.982;9.232;2022-07-18T09:57:06;3.88;;;1.60;;
21202;SDS011;10759;51.982;9.232;2022-07-18T09:59:34;2.20;;;1.27;;
21202;SDS011;10759;51.982;9.232;2022-07-18T10:02:03;3.70;;;1.35;;
21202;SDS011;10759;51.982;9.232;2022-07-18T10:04:31;2.25;;;1.30;;
21202;SDS011;10759;51.982;9.232;2022-07-18T10:06:59;1.83;;;1.27;;
21202;SDS011;10759;51.982;9.232;2022-07-18T10:09:28;1.42;;;1.30;;
21202;SDS011;10759;51.982;9.232;2022-07-18T10:11:57;1.50;;;1.30;;
21202;SDS011;10759;51.982;9.232;2022-07-18T10:14:28;1.50;;;1.10;;
21202;SDS011;10759;51.982;9.232;2022-07-18T10:16:58;2.10;;;1.40;;
21202;SDS011;10759;51.982;9.232;2022-07-18T10:19:27;1.58;;;1.27;;
21202;SDS011;10759;51.982;9.232;2022-07-18T10:21:55;1.55;;;1.35;;
21202;SDS011;10759;51.982;9.232;2022-07-18T10:24:24;1.58;;;1.13;;
21202;SDS011;10759;51.982;9.232;2022-07-18T10:27:15;2.03;;;1.48;;
21202;SDS011;10759;51.982;9.232;2022-07-18T10:32:37;4.57;;;1.75;;
21202;SDS011;10759;51.982;9.232;2022-07-18T10:35:05;3.75;;;1.40;;
21202;SDS011;10759;51.982;9.232;2022-07-18T10:37:34;2.95;;;1.80;;
21202;SDS011;10759;51.982;9.232;2022-07-18T10:46:04;3.05;;;2.17;;
21202;SDS011;10759;51.982;9.232;2022-07-18T10:48:49;3.78;;;2.00;;
21202;SDS011;10759;51.982;9.232;2022-07-18T10:51:28;2.30;;;2.10;;
21202;SDS011;10759;51.982;9.232;2022-07-18T10:54:03;3.78;;;2.08;;
21202;SDS011;10759;51.982;9.232;2022-07-18T10:59:38;2.30;;;2.10;;
21202;SDS011;10759;51.982;9.232;2022-07-18T11:02:30;2.83;;;2.60;;
21202;SDS011;10759;51.982;9.232;2022-07-18T11:05:00;3.13;;;2.20;;
21202;SDS011;10759;51.982;9.232;2022-07-18T11:07:28;3.30;;;2.30;;
21202;SDS011;10759;51.982;9.232;2022-07-18T11:09:56;2.28;;;1.92;;
21202;SDS011;10759;51.982;9.232;2022-07-18T11:12:25;2.80;;;1.88;;
21202;SDS011;10759;51.982;9.232;2022-07-18T11:15:00;2.20;;;1.83;;
21202;SDS011;10759;51.982;9.232;2022-07-18T11:20:39;2.80;;;1.90;;
21202;SDS011;10759;51.982;9.232;2022-07-18T11:23:18;2.15;;;1.92;;
21202;SDS011;10759;51.982;9.232;2022-07-18T11:25:48;2.10;;;2.00;;
21202;SDS011;10759;51.982;9.232;2022-07-18T11:28:23;2.55;;;2.22;;
21202;SDS011;10759;51.982;9.232;2022-07-18T11:31:00;1.75;;;1.65;;
21202;SDS011;10759;51.982;9.232;2022-07-18T11:33:32;2.97;;;2.25;;
21202;SDS011;10759;51.982;9.232;2022-07-18T11:36:02;2.33;;;1.90;;
21202;SDS011;10759;51.982;9.232;2022-07-18T11:38:31;2.33;;;2.03;;
21202;SDS011;10759;51.982;9.232;2022-07-18T11:40:59;2.05;;;1.83;;
21202;SDS011;10759;51.982;9.232;2022-07-18T11:46:02;1.88;;;1.77;;
21202;SDS011;10759;51.982;9.232;2022-07-18T11:48:39;2.15;;;1.98;;
21202;SDS011;10759;51.982;9.232;2022-07-18T11:51:08;2.65;;;1.63;;
21202;SDS011;10759;51.982;9.232;2022-07-18T11:53:41;2.30;;;2.10;;
21202;SDS011;10759;51.982;9.232;2022-07-18T11:56:10;2.42;;;1.70;;
21202;SDS011;10759;51.982;9.232;2022-07-18T11:58:39;3.83;;;2.20;;
21202;SDS011;10759;51.982;9.232;2022-07-18T12:01:10;2.20;;;2.03;;
21202;SDS011;10759;51.982;9.232;2022-07-18T12:06:11;2.53;;;1.95;;
21202;SDS011;10759;51.982;9.232;2022-07-18T12:08:41;3.50;;;2.35;;
21202;SDS011;10759;51.982;9.232;2022-07-18T12:11:14;3.80;;;2.22;;
21202;SDS011;10759;51.982;9.232;2022-07-18T12:13:47;3.00;;;1.73;;
21202;SDS011;10759;51.982;9.232;2022-07-18T12:16:26;3.03;;;2.47;;
21202;SDS011;10759;51.982;9.232;2022-07-18T12:19:03;2.92;;;2.20;;
21202;SDS011;10759;51.982;9.232;2022-07-18T12:21:38;3.15;;;1.80;;
21202;SDS011;10759;51.982;9.232;2022-07-18T12:24:18;4.82;;;1.92;;
21202;SDS011;10759;51.982;9.232;2022-07-18T12:27:11;2.13;;;1.80;;
21202;SDS011;10759;51.982;9.232;2022-07-18T12:30:02;2.08;;;1.83;;
21202;SDS011;10759;51.982;9.232;2022-07-18T12:32:39;2.53;;;1.97;;
21202;SDS011;10759;51.982;9.232;2022-07-18T12:35:10;2.50;;;1.77;;
21202;SDS011;10759;51.982;9.232;2022-07-18T12:40:12;2.38;;;1.92;;
21202;SDS011;10759;51.982;9.232;2022-07-18T12:43:01;2.15;;;1.90;;
21202;SDS011;10759;51.982;9.232;2022-07-18T12:45:30;2.55;;;1.80;;
21202;SDS011;10759;51.982;9.232;2022-07-18T12:48:00;3.22;;;1.73;;
21202;SDS011;10759;51.982;9.232;2022-07-18T12:52:56;1.88;;;1.77;;
21202;SDS011;10759;51.982;9.232;2022-07-18T12:55:24;2.60;;;1.80;;
21202;SDS011;10759;51.982;9.232;2022-07-18T12:57:58;2.05;;;1.88;;
21202;SDS011;10759;51.982;9.232;2022-07-18T13:00:26;1.70;;;1.60;;
21202;SDS011;10759;51.982;9.232;2022-07-18T13:02:56;2.20;;;1.95;;
21202;SDS011;10759;51.982;9.232;2022-07-18T13:05:30;1.90;;;1.80;;
21202;SDS011;10759;51.982;9.232;2022-07-18T13:07:58;2.90;;;1.63;;
21202;SDS011;10759;51.982;9.232;2022-07-18T13:10:27;3.72;;;1.90;;
21202;SDS011;10759;51.982;9.232;2022-07-18T13:12:56;2.00;;;1.80;;
21202;SDS011;10759;51.982;9.232;2022-07-18T13:15:24;2.38;;;2.03;;
21202;SDS011;10759;51.982;9.232;2022-07-18T13:17:52;2.03;;;1.92;;
21202;SDS011;10759;51.982;9.232;2022-07-18T13:20:21;6.28;;;2.00;;
21202;SDS011;10759;51.982;9.232;2022-07-18T13:22:51;3.10;;;2.08;;
21202;SDS011;10759;51.982;9.232;2022-07-18T13:27:48;3.65;;;2.00;;
21202;SDS011;10759;51.982;9.232;2022-07-18T13:30:16;2.60;;;2.03;;
21202;SDS011;10759;51.982;9.232;2022-07-18T13:32:45;2.47;;;2.00;;
21202;SDS011;10759;51.982;9.232;2022-07-18T13:35:13;2.90;;;2.58;;
21202;SDS011;10759;51.982;9.232;2022-07-18T13:37:42;2.75;;;2.03;;
21202;SDS011;10759;51.982;9.232;2022-07-18T13:40:11;2.38;;;2.00;;
21202;SDS011;10759;51.982;9.232;2022-07-18T13:42:41;3.47;;;1.95;;
21202;SDS011;10759;51.982;9.232;2022-07-18T13:45:10;3.55;;;1.98;;
21202;SDS011;10759;51.982;9.232;2022-07-18T13:47:40;1.63;;;1.48;;
21202;SDS011;10759;51.982;9.232;2022-07-18T13:50:09;2.28;;;2.05;;
21202;SDS011;10759;51.982;9.232;2022-07-18T13:52:37;3.27;;;2.17;;
21202;SDS011;10759;51.982;9.232;2022-07-18T13:55:06;3.40;;;1.92;;
21202;SDS011;10759;51.982;9.232;2022-07-18T13:57:37;3.35;;;2.00;;
21202;SDS011;10759;51.982;9.232;2022-07-18T14:00:06;2.95;;;2.28;;
21202;SDS011;10759;51.982;9.232;2022-07-18T14:02:36;3.53;;;2.03;;
21202;SDS011;10759;51.982;9.232;2022-07-18T14:05:06;2.28;;;2.15;;
21202;SDS011;10759;51.982;9.232;2022-07-18T14:07:39;3.83;;;2.00;;
21202;SDS011;10759;51.982;9.232;2022-07-18T14:10:08;3.80;;;2.65;;
21202;SDS011;10759;51.982;9.232;2022-07-18T14:12:38;2.80;;;1.77;;
21202;SDS011;10759;51.982;9.232;2022-07-18T14:15:07;3.92;;;1.90;;
21202;SDS011;10759;51.982;9.232;2022-07-18T14:17:36;2.35;;;2.15;;
21202;SDS011;10759;51.982;9.232;2022-07-18T14:20:05;2.63;;;2.08;;
21202;SDS011;10759;51.982;9.232;2022-07-18T14:22:35;2.53;;;1.95;;
21202;SDS011;10759;51.982;9.232;2022-07-18T14:25:03;2.88;;;2.00;;
21202;SDS011;10759;51.982;9.232;2022-07-18T14:27:32;17.38;;;2.88;;
21202;SDS011;10759;51.982;9.232;2022-07-18T14:30:03;3.97;;;2.10;;
21202;SDS011;10759;51.982;9.232;2022-07-18T14:32:33;4.82;;;2.35;;
21202;SDS011;10759;51.982;9.232;2022-07-18T14:35:01;2.25;;;2.05;;
21202;SDS011;10759;51.982;9.232;2022-07-18T14:37:30;3.50;;;2.33;;
21202;SDS011;10759;51.982;9.232;2022-07-18T14:39:58;2.28;;;1.83;;
21202;SDS011;10759;51.982;9.232;2022-07-18T14:42:26;2.20;;;2.00;;
21202;SDS011;10759;51.982;9.232;2022-07-18T14:44:54;2.40;;;2.13;;
21202;SDS011;10759;51.982;9.232;2022-07-18T14:47:24;2.72;;;2.00;;
21202;SDS011;10759;51.982;9.232;2022-07-18T14:49:52;1.83;;;1.70;;
21202;SDS011;10759;51.982;9.232;2022-07-18T14:52:20;2.10;;;1.80;;
21202;SDS011;10759;51.982;9.232;2022-07-18T14:54:48;2.00;;;1.80;;
21202;SDS011;10759;51.982;9.232;2022-07-18T14:57:17;1.77;;;1.60;;
21202;SDS011;10759;51.982;9.232;2022-07-18T14:59:45;2.92;;;1.90;;
21202;SDS011;10759;51.982;9.232;2022-07-18T15:02:14;2.58;;;1.80;;
21202;SDS011;10759;51.982;9.232;2022-07-18T15:04:43;2.78;;;1.83;;
21202;SDS011;10759;51.982;9.232;2022-07-18T15:07:11;2.42;;;2.08;;
21202;SDS011;10759;51.982;9.232;2022-07-18T15:09:39;2.30;;;1.70;;
21202;SDS011;10759;51.982;9.232;2022-07-18T15:12:08;3.45;;;1.90;;
21202;SDS011;10759;51.982;9.232;2022-07-18T15:14:36;3.97;;;1.95;;
21202;SDS011;10759;51.982;9.232;2022-07-18T15:17:04;1.60;;;1.48;;
21202;SDS011;10759;51.982;9.232;2022-07-18T15:19:32;4.60;;;2.03;;
21202;SDS011;10759;51.982;9.232;2022-07-18T15:22:02;3.50;;;1.77;;
21202;SDS011;10759;51.982;9.232;2022-07-18T15:24:31;2.92;;;1.88;;
21202;SDS011;10759;51.982;9.232;2022-07-18T15:27:00;3.40;;;2.05;;
21202;SDS011;10759;51.982;9.232;2022-07-18T15:29:28;2.63;;;2.00;;
21202;SDS011;10759;51.982;9.232;2022-07-18T15:31:57;20.08;;;2.33;;
21202;SDS011;10759;51.982;9.232;2022-07-18T15:34:25;2.80;;;1.65;;